createdAt,value
2022-08-11T00:01:55.712Z,10.02
2022-08-11T00:05:02.172Z,11.10
2022-08-11T00:08:04.843Z,10.38
2022-08-11T00:11:12.755Z,10.02
2022-08-11T00:14:17.045Z,10.35
2022-08-11T00:17:19.457Z,9.88
2022-08-11T00:20:22.197Z,9.85
2022-08-11T00:23:25.297Z,9.38
2022-08-11T00:26:29.175Z,11.15
2022-08-11T00:29:32.269Z,10.88
2022-08-11T00:32:35.790Z,10.70
2022-08-11T00:39:05.628Z,10.23
2022-08-11T00:42:34.858Z,10.30
2022-08-11T00:45:52.416Z,10.90
2022-08-11T00:49:18.633Z,10.65
2022-08-11T00:52:50.800Z,12.55
2022-08-11T00:56:21.115Z,11.55
2022-08-11T01:00:03.834Z,10.65
2022-08-11T01:03:30.133Z,10.70
2022-08-11T01:07:00.030Z,10.65
2022-08-11T01:10:10.011Z,10.38
2022-08-11T01:13:33.499Z,10.52
2022-08-11T01:17:29.518Z,10.55
2022-08-11T01:20:46.493Z,11.70
2022-08-11T01:24:18.516Z,12.20
2022-08-11T01:27:29.035Z,11.52
2022-08-11T01:30:55.660Z,11.52
2022-08-11T01:34:31.970Z,11.73
2022-08-11T01:37:54.947Z,10.85
2022-08-11T01:41:20.849Z,11.27
2022-08-11T01:44:57.649Z,10.55
2022-08-11T01:48:16.356Z,11.95
2022-08-11T01:51:45.114Z,12.23
2022-08-11T01:54:56.848Z,11.93
2022-08-11T01:58:44.043Z,13.00
2022-08-11T02:02:42.446Z,11.70
2022-08-11T02:06:28.809Z,12.70
2022-08-11T02:09:49.275Z,13.05
2022-08-11T02:13:07.652Z,11.30
2022-08-11T02:16:26.158Z,8.68
2022-08-11T02:20:08.737Z,13.48
2022-08-11T02:24:04.595Z,12.35
2022-08-11T02:27:24.894Z,13.50
2022-08-11T02:30:32.595Z,13.20
2022-08-11T02:33:36.950Z,12.35
2022-08-11T02:36:50.287Z,13.43
2022-08-11T02:39:58.132Z,13.63
2022-08-11T02:43:17.232Z,10.65
2022-08-11T02:46:32.870Z,13.60
2022-08-11T02:50:17.731Z,13.27
2022-08-11T02:53:30.947Z,12.75
2022-08-11T02:56:38.702Z,14.45
2022-08-11T03:00:11.815Z,12.07
2022-08-11T03:03:25.732Z,13.13
2022-08-11T03:06:52.460Z,14.32
2022-08-11T03:10:03.027Z,14.45
2022-08-11T03:13:41.763Z,15.40
2022-08-11T03:17:27.748Z,14.65
2022-08-11T03:20:57.772Z,14.32
2022-08-11T03:24:03.543Z,15.18
2022-08-11T03:27:14.627Z,12.32
2022-08-11T03:30:27.677Z,15.70
2022-08-11T03:34:08.006Z,9.93
2022-08-11T03:37:40.320Z,12.68
2022-08-11T03:42:02.303Z,14.30
2022-08-11T03:45:03.644Z,15.25
2022-08-11T03:48:23.113Z,13.18
2022-08-11T03:51:52.209Z,16.50
2022-08-11T03:55:12.057Z,14.98
2022-08-11T03:59:07.022Z,14.35
2022-08-11T04:02:39.446Z,17.17
2022-08-11T04:05:44.040Z,16.05
2022-08-11T04:09:17.923Z,16.90
2022-08-11T04:16:26.159Z,13.30
2022-08-11T04:19:52.639Z,16.00
2022-08-11T04:23:13.359Z,15.75
2022-08-11T04:27:14.142Z,14.82
2022-08-11T04:30:27.698Z,16.10
2022-08-11T04:34:18.007Z,14.60
2022-08-11T04:37:51.385Z,15.48
2022-08-11T04:41:20.777Z,14.23
2022-08-11T04:45:01.944Z,14.55
2022-08-11T04:48:43.158Z,11.95
2022-08-11T04:52:24.850Z,11.82
2022-08-11T04:56:27.270Z,13.35
2022-08-11T05:00:21.026Z,12.63
2022-08-11T05:03:35.399Z,12.00
2022-08-11T05:18:20.893Z,8.82
2022-08-11T05:21:44.796Z,13.30
2022-08-11T05:25:09.493Z,12.75
2022-08-11T05:28:33.365Z,11.52
2022-08-11T05:32:02.125Z,12.85
2022-08-11T05:35:07.610Z,11.40
2022-08-11T05:38:43.342Z,11.85
2022-08-11T05:42:03.934Z,12.60
2022-08-11T05:46:02.355Z,14.27
2022-08-11T05:49:16.021Z,12.60
2022-08-11T05:52:42.027Z,12.88
2022-08-11T05:56:03.931Z,11.25
2022-08-11T05:59:13.692Z,11.75
2022-08-11T06:02:16.629Z,12.32
2022-08-11T06:05:19.665Z,11.88
2022-08-11T06:11:43.578Z,12.55
2022-08-11T06:14:49.494Z,9.95
2022-08-11T06:17:52.054Z,11.77
2022-08-11T06:20:56.555Z,11.60
2022-08-11T06:23:59.737Z,12.00
2022-08-11T06:30:15.465Z,12.60
2022-08-11T06:33:44.052Z,11.35
2022-08-11T06:37:01.652Z,11.48
2022-08-11T06:40:33.900Z,11.18
2022-08-11T06:43:55.394Z,10.98
2022-08-11T06:47:09.833Z,11.25
2022-08-11T06:50:34.057Z,10.32
2022-08-11T06:53:39.277Z,9.45
2022-08-11T06:57:28.977Z,10.32
2022-08-11T07:00:28.660Z,9.85
2022-08-11T07:03:35.927Z,9.55
2022-08-11T07:07:34.104Z,9.18
2022-08-11T07:11:14.470Z,9.25
2022-08-11T07:14:39.551Z,8.68
2022-08-11T07:17:49.519Z,9.48
2022-08-11T07:22:00.872Z,10.00
2022-08-11T07:25:08.370Z,10.02
2022-08-11T07:28:40.389Z,9.88
2022-08-11T07:31:51.908Z,9.70
2022-08-11T07:35:23.480Z,9.55
2022-08-11T07:38:43.260Z,10.30
2022-08-11T07:41:48.587Z,9.98
2022-08-11T07:45:11.082Z,8.80
2022-08-11T07:48:33.681Z,10.05
2022-08-11T07:51:55.809Z,11.07
2022-08-11T07:55:07.786Z,11.20
2022-08-11T07:58:29.989Z,11.63
2022-08-11T08:01:54.746Z,10.98
2022-08-11T08:05:17.437Z,10.68
2022-08-11T08:08:38.407Z,10.87
2022-08-11T08:11:59.617Z,11.07
2022-08-11T08:15:24.812Z,10.32
2022-08-11T08:18:27.745Z,10.95
2022-08-11T08:21:30.018Z,11.02
2022-08-11T08:24:33.442Z,10.27
2022-08-11T08:27:36.701Z,10.70
2022-08-11T08:30:48.175Z,9.90
2022-08-11T08:33:51.222Z,10.40
2022-08-11T08:39:55.903Z,10.77
2022-08-11T08:43:04.746Z,9.98
2022-08-11T08:46:10.546Z,9.60
2022-08-11T08:49:18.924Z,9.85
2022-08-11T08:52:30.883Z,10.70
2022-08-11T08:55:35.581Z,10.38
2022-08-11T08:58:41.695Z,10.87
2022-08-11T09:01:54.241Z,9.73
2022-08-11T09:04:56.555Z,10.43
2022-08-11T09:07:58.507Z,9.30
2022-08-11T09:11:20.302Z,10.35
2022-08-11T09:14:52.057Z,10.52
2022-08-11T09:18:03.781Z,10.20
2022-08-11T09:21:06.407Z,10.57
2022-08-11T09:24:27.567Z,10.85
2022-08-11T09:27:29.558Z,10.80
2022-08-11T09:30:32.687Z,10.23
2022-08-11T09:40:18.288Z,10.90
2022-08-11T09:43:40.103Z,11.38
2022-08-11T09:46:42.126Z,11.27
2022-08-11T09:49:46.218Z,11.30
2022-08-11T09:53:16.959Z,11.32
2022-08-11T09:56:39.515Z,11.57
2022-08-11T09:59:41.631Z,11.88
2022-08-11T10:02:46.908Z,12.05
2022-08-11T10:06:14.608Z,11.90
2022-08-11T10:09:20.537Z,13.98
2022-08-11T10:12:33.227Z,14.30
2022-08-11T10:15:39.407Z,13.25
2022-08-11T10:19:05.068Z,13.93
2022-08-11T10:22:27.003Z,15.38
2022-08-11T10:25:48.494Z,16.43
2022-08-11T10:29:11.915Z,15.45
2022-08-11T10:32:33.039Z,16.40
2022-08-11T10:35:51.560Z,15.40
2022-08-11T10:38:54.242Z,16.13
2022-08-11T10:42:29.953Z,15.20
2022-08-11T10:45:54.274Z,15.98
2022-08-11T10:48:57.879Z,14.95
2022-08-11T10:52:20.978Z,16.90
2022-08-11T10:55:43.489Z,14.80
2022-08-11T10:58:49.312Z,18.20
2022-08-11T11:01:53.421Z,17.30
2022-08-11T11:05:09.388Z,17.95
2022-08-11T11:08:39.085Z,19.30
2022-08-11T11:12:07.608Z,18.92
2022-08-11T11:15:29.571Z,18.75
2022-08-11T11:18:36.920Z,20.63
2022-08-11T11:21:42.535Z,19.98
2022-08-11T11:25:02.944Z,20.50
2022-08-11T11:28:43.586Z,20.00
2022-08-11T11:32:04.859Z,21.30
2022-08-11T11:35:28.240Z,23.13
2022-08-11T11:38:30.552Z,22.50
2022-08-11T11:41:32.813Z,23.07
2022-08-11T11:44:36.256Z,22.90
2022-08-11T11:47:39.339Z,20.50
2022-08-11T11:50:41.632Z,20.40
2022-08-11T11:53:45.516Z,21.50
2022-08-11T11:56:47.667Z,20.65
2022-08-11T12:00:10.682Z,21.55
2022-08-11T12:03:13.470Z,20.67
2022-08-11T12:06:17.119Z,18.88
2022-08-11T12:09:23.305Z,20.17
2022-08-11T12:12:45.461Z,18.63
2022-08-11T12:16:32.041Z,18.45
2022-08-11T12:22:36.344Z,18.05
2022-08-11T12:26:23.459Z,18.65
2022-08-11T12:29:20.790Z,18.10
2022-08-11T12:32:26.044Z,17.60
2022-08-11T12:35:28.010Z,15.77
2022-08-11T12:38:31.356Z,16.20
2022-08-11T12:41:53.791Z,15.52
2022-08-11T12:48:58.655Z,13.98
2022-08-11T12:52:12.785Z,13.60
2022-08-11T12:55:38.813Z,14.20
2022-08-11T12:58:42.945Z,13.80
2022-08-11T13:02:03.770Z,14.38
2022-08-11T13:05:11.826Z,12.55
2022-08-11T13:08:17.414Z,12.75
2022-08-11T13:15:01.692Z,12.00
2022-08-11T13:18:08.149Z,12.88
2022-08-11T13:21:20.823Z,12.88
2022-08-11T13:24:23.987Z,12.38
2022-08-11T13:27:26.793Z,12.38
2022-08-11T13:30:51.346Z,11.65
2022-08-11T13:33:54.293Z,11.15
2022-08-11T13:40:01.963Z,10.30
2022-08-11T13:43:04.042Z,10.63
2022-08-11T13:46:22.867Z,11.60
2022-08-11T13:49:25.958Z,11.73
2022-08-11T13:52:28.597Z,11.35
2022-08-11T13:55:45.128Z,11.60
2022-08-11T13:58:54.177Z,12.02
2022-08-11T14:02:20.841Z,11.27
2022-08-11T14:05:33.938Z,11.35
2022-08-11T14:08:40.936Z,11.63
2022-08-11T14:12:21.964Z,13.13
2022-08-11T14:15:33.056Z,12.07
2022-08-11T14:18:36.163Z,11.55
2022-08-11T14:22:07.248Z,13.93
2022-08-11T14:25:12.413Z,12.57
2022-08-11T14:28:33.686Z,12.73
2022-08-11T14:31:43.623Z,14.23
2022-08-11T14:34:45.867Z,11.27
2022-08-11T14:37:48.583Z,13.00
2022-08-11T14:41:10.882Z,14.07
2022-08-11T14:44:31.957Z,14.15
2022-08-11T14:47:41.850Z,13.35
2022-08-11T14:50:44.095Z,13.10
2022-08-11T14:53:52.102Z,15.57
2022-08-11T14:57:03.280Z,13.90
2022-08-11T15:00:08.637Z,14.40
2022-08-11T15:03:15.237Z,14.07
2022-08-11T15:06:17.495Z,15.73
2022-08-11T15:09:19.664Z,12.90
2022-08-11T15:12:32.766Z,15.02
2022-08-11T15:15:54.336Z,15.93
2022-08-11T15:18:57.272Z,15.27
2022-08-11T15:25:20.963Z,14.77
2022-08-11T15:28:44.954Z,16.15
2022-08-11T15:32:06.777Z,15.45
2022-08-11T15:35:38.932Z,16.80
2022-08-11T15:38:55.474Z,16.40
2022-08-11T15:42:25.864Z,15.32
2022-08-11T15:45:50.047Z,16.02
2022-08-11T15:49:21.867Z,15.30
2022-08-11T15:52:30.038Z,15.98
2022-08-11T15:55:35.063Z,14.82
2022-08-11T15:59:40.615Z,14.68
2022-08-11T16:02:50.367Z,15.50
2022-08-11T16:05:53.203Z,15.30
2022-08-11T16:08:59.625Z,14.38
2022-08-11T16:12:04.891Z,14.63
2022-08-11T16:15:28.787Z,15.52
2022-08-11T16:18:41.376Z,15.23
2022-08-11T16:21:44.769Z,16.13
2022-08-11T16:27:01.927Z,16.35
2022-08-11T16:28:14.666Z,14.55
2022-08-11T16:31:18.153Z,15.45
2022-08-11T16:34:38.738Z,15.15
2022-08-11T16:38:00.365Z,15.32
2022-08-11T16:41:11.706Z,15.82
2022-08-11T16:44:37.861Z,16.65
2022-08-11T16:48:02.609Z,15.27
2022-08-11T16:51:11.290Z,16.23
2022-08-11T16:54:13.892Z,14.70
2022-08-11T16:57:39.202Z,13.65
2022-08-11T17:00:41.455Z,15.68
2022-08-11T17:04:05.845Z,16.00
2022-08-11T17:07:42.453Z,15.75
2022-08-11T17:11:21.983Z,16.13
2022-08-11T17:14:35.614Z,15.23
2022-08-11T17:17:39.864Z,16.77
2022-08-11T17:20:44.333Z,15.45
2022-08-11T17:24:09.513Z,16.75
2022-08-11T17:27:16.651Z,15.63
2022-08-11T17:30:19.708Z,16.35
2022-08-11T17:36:45.835Z,16.92
2022-08-11T17:39:49.536Z,16.35
2022-08-11T17:43:15.276Z,16.27
2022-08-11T17:46:37.140Z,14.90
2022-08-11T17:49:40.544Z,16.70
2022-08-11T17:53:03.742Z,15.68
2022-08-11T17:56:25.863Z,17.80
2022-08-11T17:59:49.062Z,18.42
2022-08-11T18:03:13.047Z,19.35
2022-08-11T18:06:18.716Z,17.55
2022-08-11T18:09:41.901Z,20.05
2022-08-11T18:13:03.212Z,19.45
2022-08-11T18:16:24.060Z,18.67
2022-08-11T18:19:44.756Z,21.40
2022-08-11T18:23:07.425Z,20.52
2022-08-11T18:26:29.912Z,18.93
2022-08-11T18:29:53.881Z,22.15
2022-08-11T18:34:03.946Z,24.83
2022-08-11T18:37:08.035Z,27.15
2022-08-11T18:40:35.169Z,27.95
2022-08-11T18:44:01.034Z,25.98
2022-08-11T18:47:27.447Z,31.23
2022-08-11T18:51:00.674Z,28.42
2022-08-11T18:54:32.675Z,30.50
2022-08-11T18:57:58.167Z,29.30
2022-08-11T19:01:20.474Z,28.10
2022-08-11T19:04:44.480Z,27.95
2022-08-11T19:08:10.467Z,25.58
2022-08-11T19:11:42.375Z,26.23
2022-08-11T19:15:06.594Z,23.03
2022-08-11T19:18:32.553Z,24.25
2022-08-11T19:21:55.588Z,22.27
2022-08-11T19:25:20.982Z,22.35
2022-08-11T19:28:47.578Z,21.30
2022-08-11T19:32:10.863Z,20.67
2022-08-11T19:35:41.969Z,21.65
2022-08-11T19:39:04.532Z,21.20
2022-08-11T19:42:29.245Z,21.23
2022-08-11T19:45:53.111Z,19.75
2022-08-11T19:49:18.109Z,18.80
2022-08-11T19:52:40.154Z,17.50
2022-08-11T19:56:03.938Z,19.35
2022-08-11T19:59:26.653Z,19.08
2022-08-11T20:02:47.200Z,17.10
2022-08-11T20:06:10.122Z,17.98
2022-08-11T20:10:05.492Z,17.77
2022-08-11T20:13:21.205Z,17.85
2022-08-11T20:16:44.121Z,18.23
2022-08-11T20:20:05.408Z,17.75
2022-08-11T20:23:28.603Z,17.98
2022-08-11T20:26:51.881Z,18.27
2022-08-11T20:30:15.499Z,17.27
2022-08-11T20:36:57.725Z,16.73
2022-08-11T20:40:23.483Z,18.17
2022-08-11T20:44:07.423Z,19.52
2022-08-11T20:47:27.334Z,19.85
2022-08-11T20:50:49.387Z,20.63
2022-08-11T20:54:13.850Z,19.65
2022-08-11T20:57:59.888Z,17.67
2022-08-11T21:01:20.424Z,20.67
2022-08-11T21:04:54.099Z,20.95
2022-08-11T21:08:16.449Z,20.38
2022-08-11T21:11:37.382Z,21.70
2022-08-11T21:14:59.634Z,21.63
2022-08-11T21:18:29.512Z,22.17
2022-08-11T21:21:51.276Z,23.45
2022-08-11T21:25:16.084Z,24.42
2022-08-11T21:28:38.605Z,23.70
2022-08-11T21:32:00.038Z,25.52
2022-08-11T21:35:22.153Z,28.00
2022-08-11T21:38:43.643Z,32.17
2022-08-11T21:42:05.848Z,36.15
2022-08-11T21:45:28.804Z,33.40
2022-08-11T21:48:51.791Z,35.03
2022-08-11T21:52:12.790Z,33.67
2022-08-11T21:55:33.563Z,35.13
2022-08-11T21:58:56.639Z,33.55
2022-08-11T22:02:18.075Z,31.38
2022-08-11T22:05:39.161Z,32.63
2022-08-11T22:09:01.432Z,35.42
2022-08-11T22:12:41.170Z,35.72
2022-08-11T22:16:03.845Z,35.90
2022-08-11T22:19:25.507Z,31.92
2022-08-11T22:22:52.034Z,33.58
2022-08-11T22:26:15.186Z,34.35
2022-08-11T22:29:38.053Z,32.10
2022-08-11T22:33:11.421Z,32.47
2022-08-11T22:36:33.625Z,32.10
2022-08-11T22:40:01.852Z,32.72
2022-08-11T22:43:23.375Z,31.52
2022-08-11T22:46:44.705Z,30.45
2022-08-11T22:50:09.644Z,33.03
2022-08-11T22:53:55.024Z,31.30
2022-08-11T22:57:13.434Z,31.90
2022-08-11T23:00:35.139Z,30.75
2022-08-11T23:03:56.259Z,31.25
2022-08-11T23:07:49.436Z,30.20
2022-08-11T23:11:01.485Z,26.98
2022-08-11T23:14:22.807Z,27.00
2022-08-11T23:17:44.517Z,25.33
2022-08-11T23:21:06.878Z,28.25
2022-08-11T23:24:29.453Z,26.70
2022-08-11T23:27:52.701Z,24.95
2022-08-11T23:31:16.580Z,24.77
2022-08-11T23:35:04.091Z,25.90
2022-08-11T23:38:21.043Z,26.55
2022-08-11T23:41:41.737Z,27.05
2022-08-11T23:45:02.111Z,27.75
2022-08-11T23:48:27.915Z,27.50
2022-08-11T23:51:48.220Z,27.88
2022-08-11T23:55:08.970Z,25.27
2022-08-11T23:58:29.685Z,27.27
